sensor_id;sensor_type;location;lat;lon;timestamp;P1;durP1;ratioP1;P2;durP2;ratioP2
59673;SDS011;45544;53.358;-1.488;2022-07-11T00:02:06;0.70;;;0.70;;
59673;SDS011;45544;53.358;-1.488;2022-07-11T00:04:33;0.90;;;0.90;;
59673;SDS011;45544;53.358;-1.488;2022-07-11T00:06:59;0.60;;;0.60;;
59673;SDS011;45544;53.358;-1.488;2022-07-11T00:09:25;0.70;;;0.63;;
59673;SDS011;45544;53.358;-1.488;2022-07-11T00:11:51;0.75;;;0.60;;
59673;SDS011;45544;53.358;-1.488;2022-07-11T00:14:18;0.73;;;0.73;;
59673;SDS011;45544;53.358;-1.488;2022-07-11T00:16:44;0.95;;;0.80;;
59673;SDS011;45544;53.358;-1.488;2022-07-11T00:19:10;0.80;;;0.70;;
59673;SDS011;45544;53.358;-1.488;2022-07-11T00:21:36;0.60;;;0.60;;
59673;SDS011;45544;53.358;-1.488;2022-07-11T00:24:03;1.77;;;0.70;;
59673;SDS011;45544;53.358;-1.488;2022-07-11T00:26:29;1.00;;;0.90;;
59673;SDS011;45544;53.358;-1.488;2022-07-11T00:28:56;1.08;;;0.68;;
59673;SDS011;45544;53.358;-1.488;2022-07-11T00:31:24;0.90;;;0.80;;
59673;SDS011;45544;53.358;-1.488;2022-07-11T00:33:50;0.70;;;0.70;;
59673;SDS011;45544;53.358;-1.488;2022-07-11T00:36:16;0.57;;;0.57;;
59673;SDS011;45544;53.358;-1.488;2022-07-11T00:38:42;0.50;;;0.50;;
59673;SDS011;45544;53.358;-1.488;2022-07-11T00:41:08;2.28;;;0.60;;
59673;SDS011;45544;53.358;-1.488;2022-07-11T00:43:36;0.80;;;0.50;;
59673;SDS011;45544;53.358;-1.488;2022-07-11T00:46:03;1.38;;;0.70;;
59673;SDS011;45544;53.358;-1.488;2022-07-11T00:48:29;0.82;;;0.70;;
59673;SDS011;45544;53.358;-1.488;2022-07-11T00:50:56;1.23;;;0.77;;
59673;SDS011;45544;53.358;-1.488;2022-07-11T00:53:23;0.55;;;0.55;;
59673;SDS011;45544;53.358;-1.488;2022-07-11T00:55:49;1.13;;;0.77;;
59673;SDS011;45544;53.358;-1.488;2022-07-11T00:58:17;0.73;;;0.65;;
59673;SDS011;45544;53.358;-1.488;2022-07-11T01:00:43;0.40;;;0.40;;
59673;SDS011;45544;53.358;-1.488;2022-07-11T01:03:10;0.57;;;0.55;;
59673;SDS011;45544;53.358;-1.488;2022-07-11T01:05:36;0.60;;;0.60;;
59673;SDS011;45544;53.358;-1.488;2022-07-11T01:08:04;0.82;;;0.68;;
59673;SDS011;45544;53.358;-1.488;2022-07-11T01:10:33;0.40;;;0.40;;
59673;SDS011;45544;53.358;-1.488;2022-07-11T01:12:59;0.50;;;0.50;;
59673;SDS011;45544;53.358;-1.488;2022-07-11T01:15:25;0.43;;;0.43;;
59673;SDS011;45544;53.358;-1.488;2022-07-11T01:17:51;0.43;;;0.32;;
59673;SDS011;45544;53.358;-1.488;2022-07-11T01:20:18;0.50;;;0.50;;
59673;SDS011;45544;53.358;-1.488;2022-07-11T01:22:46;0.80;;;0.43;;
59673;SDS011;45544;53.358;-1.488;2022-07-11T01:25:16;0.70;;;0.38;;
59673;SDS011;45544;53.358;-1.488;2022-07-11T01:27:55;0.90;;;0.60;;
59673;SDS011;45544;53.358;-1.488;2022-07-11T01:30:22;1.20;;;0.60;;
59673;SDS011;45544;53.358;-1.488;2022-07-11T01:32:50;0.52;;;0.52;;
59673;SDS011;45544;53.358;-1.488;2022-07-11T01:35:16;0.63;;;0.60;;
59673;SDS011;45544;53.358;-1.488;2022-07-11T01:37:42;0.43;;;0.43;;
59673;SDS011;45544;53.358;-1.488;2022-07-11T01:40:08;0.60;;;0.60;;
59673;SDS011;45544;53.358;-1.488;2022-07-11T01:42:34;0.57;;;0.57;;
59673;SDS011;45544;53.358;-1.488;2022-07-11T01:45:00;0.50;;;0.50;;
59673;SDS011;45544;53.358;-1.488;2022-07-11T01:47:26;0.60;;;0.60;;
59673;SDS011;45544;53.358;-1.488;2022-07-11T01:49:53;0.52;;;0.52;;
59673;SDS011;45544;53.358;-1.488;2022-07-11T01:52:20;0.80;;;0.80;;
59673;SDS011;45544;53.358;-1.488;2022-07-11T01:54:46;0.47;;;0.45;;
59673;SDS011;45544;53.358;-1.488;2022-07-11T01:57:12;0.43;;;0.43;;
59673;SDS011;45544;53.358;-1.488;2022-07-11T01:59:38;0.50;;;0.50;;
59673;SDS011;45544;53.358;-1.488;2022-07-11T02:02:04;0.70;;;0.50;;
59673;SDS011;45544;53.358;-1.488;2022-07-11T02:04:31;1.10;;;0.40;;
59673;SDS011;45544;53.358;-1.488;2022-07-11T02:06:57;1.10;;;0.50;;
59673;SDS011;45544;53.358;-1.488;2022-07-11T02:09:24;2.95;;;0.68;;
59673;SDS011;45544;53.358;-1.488;2022-07-11T02:11:50;0.60;;;0.60;;
59673;SDS011;45544;53.358;-1.488;2022-07-11T02:14:16;2.00;;;0.63;;
59673;SDS011;45544;53.358;-1.488;2022-07-11T02:16:42;0.70;;;0.60;;
59673;SDS011;45544;53.358;-1.488;2022-07-11T02:19:08;2.85;;;0.55;;
59673;SDS011;45544;53.358;-1.488;2022-07-11T02:21:35;1.58;;;0.60;;
59673;SDS011;45544;53.358;-1.488;2022-07-11T02:24:01;0.70;;;0.70;;
59673;SDS011;45544;53.358;-1.488;2022-07-11T02:26:28;1.48;;;0.95;;
59673;SDS011;45544;53.358;-1.488;2022-07-11T02:28:54;0.40;;;0.40;;
59673;SDS011;45544;53.358;-1.488;2022-07-11T02:31:20;0.77;;;0.63;;
59673;SDS011;45544;53.358;-1.488;2022-07-11T02:33:46;0.88;;;0.52;;
59673;SDS011;45544;53.358;-1.488;2022-07-11T02:36:12;0.63;;;0.63;;
59673;SDS011;45544;53.358;-1.488;2022-07-11T02:38:38;0.68;;;0.50;;
59673;SDS011;45544;53.358;-1.488;2022-07-11T02:41:04;0.57;;;0.57;;
59673;SDS011;45544;53.358;-1.488;2022-07-11T02:43:30;0.90;;;0.80;;
59673;SDS011;45544;53.358;-1.488;2022-07-11T02:45:57;0.30;;;0.30;;
59673;SDS011;45544;53.358;-1.488;2022-07-11T02:48:23;0.50;;;0.50;;
59673;SDS011;45544;53.358;-1.488;2022-07-11T02:50:49;0.80;;;0.80;;
59673;SDS011;45544;53.358;-1.488;2022-07-11T02:53:15;1.10;;;0.82;;
59673;SDS011;45544;53.358;-1.488;2022-07-11T02:55:41;1.35;;;0.80;;
59673;SDS011;45544;53.358;-1.488;2022-07-11T02:58:07;0.82;;;0.65;;
59673;SDS011;45544;53.358;-1.488;2022-07-11T03:00:33;0.82;;;0.50;;
59673;SDS011;45544;53.358;-1.488;2022-07-11T03:02:59;0.70;;;0.57;;
59673;SDS011;45544;53.358;-1.488;2022-07-11T03:05:26;1.45;;;0.60;;
59673;SDS011;45544;53.358;-1.488;2022-07-11T03:07:52;0.50;;;0.50;;
59673;SDS011;45544;53.358;-1.488;2022-07-11T03:10:19;0.50;;;0.50;;
59673;SDS011;45544;53.358;-1.488;2022-07-11T03:12:45;0.70;;;0.70;;
59673;SDS011;45544;53.358;-1.488;2022-07-11T03:15:11;0.55;;;0.55;;
59673;SDS011;45544;53.358;-1.488;2022-07-11T03:17:37;0.55;;;0.50;;
59673;SDS011;45544;53.358;-1.488;2022-07-11T03:20:04;0.98;;;0.70;;
59673;SDS011;45544;53.358;-1.488;2022-07-11T03:22:30;0.40;;;0.40;;
59673;SDS011;45544;53.358;-1.488;2022-07-11T03:24:57;0.60;;;0.60;;
59673;SDS011;45544;53.358;-1.488;2022-07-11T03:27:25;0.50;;;0.50;;
59673;SDS011;45544;53.358;-1.488;2022-07-11T03:29:51;0.60;;;0.43;;
59673;SDS011;45544;53.358;-1.488;2022-07-11T03:32:17;0.50;;;0.50;;
59673;SDS011;45544;53.358;-1.488;2022-07-11T03:34:45;0.70;;;0.70;;
59673;SDS011;45544;53.358;-1.488;2022-07-11T03:37:31;0.85;;;0.85;;
59673;SDS011;45544;53.358;-1.488;2022-07-11T03:39:58;2.25;;;0.30;;
59673;SDS011;45544;53.358;-1.488;2022-07-11T03:42:24;0.50;;;0.50;;
59673;SDS011;45544;53.358;-1.488;2022-07-11T03:44:50;0.68;;;0.47;;
59673;SDS011;45544;53.358;-1.488;2022-07-11T03:47:17;0.30;;;0.30;;
59673;SDS011;45544;53.358;-1.488;2022-07-11T03:49:43;0.50;;;0.50;;
59673;SDS011;45544;53.358;-1.488;2022-07-11T03:52:09;0.43;;;0.43;;
59673;SDS011;45544;53.358;-1.488;2022-07-11T03:54:35;0.45;;;0.45;;
59673;SDS011;45544;53.358;-1.488;2022-07-11T03:57:01;0.40;;;0.40;;
59673;SDS011;45544;53.358;-1.488;2022-07-11T03:59:27;0.70;;;0.70;;
59673;SDS011;45544;53.358;-1.488;2022-07-11T04:01:53;0.60;;;0.60;;
59673;SDS011;45544;53.358;-1.488;2022-07-11T04:04:19;0.88;;;0.77;;
59673;SDS011;45544;53.358;-1.488;2022-07-11T04:06:45;0.40;;;0.40;;
59673;SDS011;45544;53.358;-1.488;2022-07-11T04:09:11;0.70;;;0.68;;
59673;SDS011;45544;53.358;-1.488;2022-07-11T04:11:37;0.40;;;0.40;;
59673;SDS011;45544;53.358;-1.488;2022-07-11T04:14:04;0.40;;;0.40;;
59673;SDS011;45544;53.358;-1.488;2022-07-11T04:16:30;0.50;;;0.50;;
59673;SDS011;45544;53.358;-1.488;2022-07-11T04:18:56;0.30;;;0.30;;
59673;SDS011;45544;53.358;-1.488;2022-07-11T04:21:22;0.43;;;0.43;;
59673;SDS011;45544;53.358;-1.488;2022-07-11T04:23:48;0.52;;;0.52;;
59673;SDS011;45544;53.358;-1.488;2022-07-11T04:26:14;0.52;;;0.52;;
59673;SDS011;45544;53.358;-1.488;2022-07-11T04:28:40;0.60;;;0.40;;
59673;SDS011;45544;53.358;-1.488;2022-07-11T04:31:07;0.80;;;0.80;;
59673;SDS011;45544;53.358;-1.488;2022-07-11T04:33:33;0.85;;;0.50;;
59673;SDS011;45544;53.358;-1.488;2022-07-11T04:35:59;0.38;;;0.38;;
59673;SDS011;45544;53.358;-1.488;2022-07-11T04:38:25;0.55;;;0.40;;
59673;SDS011;45544;53.358;-1.488;2022-07-11T04:40:51;1.40;;;0.70;;
59673;SDS011;45544;53.358;-1.488;2022-07-11T04:43:17;0.38;;;0.38;;
59673;SDS011;45544;53.358;-1.488;2022-07-11T04:45:43;0.82;;;0.50;;
59673;SDS011;45544;53.358;-1.488;2022-07-11T04:48:09;0.30;;;0.30;;
59673;SDS011;45544;53.358;-1.488;2022-07-11T04:50:35;0.38;;;0.38;;
59673;SDS011;45544;53.358;-1.488;2022-07-11T04:53:02;0.38;;;0.38;;
59673;SDS011;45544;53.358;-1.488;2022-07-11T04:55:28;0.40;;;0.40;;
59673;SDS011;45544;53.358;-1.488;2022-07-11T04:57:55;0.50;;;0.50;;
59673;SDS011;45544;53.358;-1.488;2022-07-11T05:00:21;0.32;;;0.20;;
59673;SDS011;45544;53.358;-1.488;2022-07-11T05:02:47;0.47;;;0.47;;
59673;SDS011;45544;53.358;-1.488;2022-07-11T05:05:13;0.40;;;0.40;;
59673;SDS011;45544;53.358;-1.488;2022-07-11T05:07:39;0.43;;;0.43;;
59673;SDS011;45544;53.358;-1.488;2022-07-11T05:10:05;0.30;;;0.30;;
59673;SDS011;45544;53.358;-1.488;2022-07-11T05:12:32;0.30;;;0.30;;
59673;SDS011;45544;53.358;-1.488;2022-07-11T05:14:58;0.30;;;0.30;;
59673;SDS011;45544;53.358;-1.488;2022-07-11T05:17:24;0.50;;;0.50;;
59673;SDS011;45544;53.358;-1.488;2022-07-11T05:19:51;0.40;;;0.40;;
59673;SDS011;45544;53.358;-1.488;2022-07-11T05:22:17;0.52;;;0.45;;
59673;SDS011;45544;53.358;-1.488;2022-07-11T05:24:43;0.50;;;0.50;;
59673;SDS011;45544;53.358;-1.488;2022-07-11T05:27:09;0.50;;;0.50;;
59673;SDS011;45544;53.358;-1.488;2022-07-11T05:29:35;0.50;;;0.50;;
59673;SDS011;45544;53.358;-1.488;2022-07-11T05:32:01;0.25;;;0.25;;
59673;SDS011;45544;53.358;-1.488;2022-07-11T05:34:27;0.75;;;0.68;;
59673;SDS011;45544;53.358;-1.488;2022-07-11T05:36:54;0.30;;;0.30;;
59673;SDS011;45544;53.358;-1.488;2022-07-11T05:39:20;0.40;;;0.40;;
59673;SDS011;45544;53.358;-1.488;2022-07-11T05:41:46;0.30;;;0.30;;
59673;SDS011;45544;53.358;-1.488;2022-07-11T05:44:12;0.40;;;0.40;;
59673;SDS011;45544;53.358;-1.488;2022-07-11T05:46:38;0.20;;;0.20;;
59673;SDS011;45544;53.358;-1.488;2022-07-11T05:49:05;0.30;;;0.30;;
59673;SDS011;45544;53.358;-1.488;2022-07-11T05:51:32;0.85;;;0.85;;
59673;SDS011;45544;53.358;-1.488;2022-07-11T05:53:58;0.40;;;0.40;;
59673;SDS011;45544;53.358;-1.488;2022-07-11T05:56:24;0.45;;;0.43;;
59673;SDS011;45544;53.358;-1.488;2022-07-11T05:58:53;0.30;;;0.30;;
59673;SDS011;45544;53.358;-1.488;2022-07-11T06:01:20;0.38;;;0.30;;
59673;SDS011;45544;53.358;-1.488;2022-07-11T06:03:46;0.25;;;0.25;;
59673;SDS011;45544;53.358;-1.488;2022-07-11T06:06:12;0.50;;;0.50;;
59673;SDS011;45544;53.358;-1.488;2022-07-11T06:08:38;3.35;;;0.50;;
59673;SDS011;45544;53.358;-1.488;2022-07-11T06:11:09;0.50;;;0.40;;
59673;SDS011;45544;53.358;-1.488;2022-07-11T06:13:36;0.30;;;0.30;;
59673;SDS011;45544;53.358;-1.488;2022-07-11T06:16:02;0.43;;;0.43;;
59673;SDS011;45544;53.358;-1.488;2022-07-11T06:18:29;1.17;;;0.40;;
59673;SDS011;45544;53.358;-1.488;2022-07-11T06:20:55;0.57;;;0.40;;
59673;SDS011;45544;53.358;-1.488;2022-07-11T06:23:21;0.50;;;0.40;;
59673;SDS011;45544;53.358;-1.488;2022-07-11T06:25:47;0.60;;;0.50;;
59673;SDS011;45544;53.358;-1.488;2022-07-11T06:28:13;0.50;;;0.50;;
59673;SDS011;45544;53.358;-1.488;2022-07-11T06:30:39;0.43;;;0.43;;
59673;SDS011;45544;53.358;-1.488;2022-07-11T06:33:05;1.08;;;0.63;;
59673;SDS011;45544;53.358;-1.488;2022-07-11T06:35:31;2.13;;;0.40;;
59673;SDS011;45544;53.358;-1.488;2022-07-11T06:37:57;1.17;;;0.40;;
59673;SDS011;45544;53.358;-1.488;2022-07-11T06:40:24;0.50;;;0.50;;
59673;SDS011;45544;53.358;-1.488;2022-07-11T06:42:50;1.25;;;1.13;;
59673;SDS011;45544;53.358;-1.488;2022-07-11T06:45:16;0.85;;;0.60;;
59673;SDS011;45544;53.358;-1.488;2022-07-11T06:47:42;0.40;;;0.40;;
59673;SDS011;45544;53.358;-1.488;2022-07-11T06:50:08;0.43;;;0.40;;
59673;SDS011;45544;53.358;-1.488;2022-07-11T06:52:34;0.45;;;0.45;;
59673;SDS011;45544;53.358;-1.488;2022-07-11T06:55:00;0.40;;;0.40;;
59673;SDS011;45544;53.358;-1.488;2022-07-11T06:57:26;0.68;;;0.40;;
59673;SDS011;45544;53.358;-1.488;2022-07-11T06:59:53;1.27;;;0.80;;
59673;SDS011;45544;53.358;-1.488;2022-07-11T07:02:19;1.75;;;0.52;;
59673;SDS011;45544;53.358;-1.488;2022-07-11T07:04:45;0.77;;;0.60;;
59673;SDS011;45544;53.358;-1.488;2022-07-11T07:07:11;0.40;;;0.40;;
59673;SDS011;45544;53.358;-1.488;2022-07-11T07:09:37;1.00;;;0.80;;
59673;SDS011;45544;53.358;-1.488;2022-07-11T07:12:03;0.50;;;0.50;;
59673;SDS011;45544;53.358;-1.488;2022-07-11T07:14:29;0.60;;;0.60;;
59673;SDS011;45544;53.358;-1.488;2022-07-11T07:16:55;0.75;;;0.60;;
59673;SDS011;45544;53.358;-1.488;2022-07-11T07:19:21;0.98;;;0.98;;
59673;SDS011;45544;53.358;-1.488;2022-07-11T07:21:47;0.55;;;0.55;;
59673;SDS011;45544;53.358;-1.488;2022-07-11T07:24:13;0.93;;;0.60;;
59673;SDS011;45544;53.358;-1.488;2022-07-11T07:26:39;0.50;;;0.50;;
59673;SDS011;45544;53.358;-1.488;2022-07-11T07:29:05;1.33;;;0.60;;
59673;SDS011;45544;53.358;-1.488;2022-07-11T07:31:31;1.30;;;0.77;;
59673;SDS011;45544;53.358;-1.488;2022-07-11T07:33:58;0.50;;;0.50;;
59673;SDS011;45544;53.358;-1.488;2022-07-11T07:36:24;0.47;;;0.45;;
59673;SDS011;45544;53.358;-1.488;2022-07-11T07:38:50;0.47;;;0.40;;
59673;SDS011;45544;53.358;-1.488;2022-07-11T07:41:16;1.30;;;0.52;;
59673;SDS011;45544;53.358;-1.488;2022-07-11T07:43:42;0.73;;;0.55;;
59673;SDS011;45544;53.358;-1.488;2022-07-11T07:46:08;0.50;;;0.50;;
59673;SDS011;45544;53.358;-1.488;2022-07-11T07:48:35;0.63;;;0.60;;
59673;SDS011;45544;53.358;-1.488;2022-07-11T07:51:01;1.95;;;0.77;;
59673;SDS011;45544;53.358;-1.488;2022-07-11T07:53:27;0.40;;;0.40;;
59673;SDS011;45544;53.358;-1.488;2022-07-11T07:55:53;0.65;;;0.50;;
59673;SDS011;45544;53.358;-1.488;2022-07-11T07:58:20;0.85;;;0.73;;
59673;SDS011;45544;53.358;-1.488;2022-07-11T08:00:46;1.00;;;0.35;;
59673;SDS011;45544;53.358;-1.488;2022-07-11T08:03:30;0.65;;;0.50;;
59673;SDS011;45544;53.358;-1.488;2022-07-11T08:05:56;0.98;;;0.52;;
59673;SDS011;45544;53.358;-1.488;2022-07-11T08:08:22;0.60;;;0.60;;
59673;SDS011;45544;53.358;-1.488;2022-07-11T08:10:49;0.60;;;0.50;;
59673;SDS011;45544;53.358;-1.488;2022-07-11T08:13:17;0.77;;;0.70;;
59673;SDS011;45544;53.358;-1.488;2022-07-11T08:15:43;0.75;;;0.65;;
59673;SDS011;45544;53.358;-1.488;2022-07-11T08:18:09;2.25;;;0.85;;
59673;SDS011;45544;53.358;-1.488;2022-07-11T08:20:35;0.80;;;0.80;;
59673;SDS011;45544;53.358;-1.488;2022-07-11T08:23:01;0.88;;;0.85;;
59673;SDS011;45544;53.358;-1.488;2022-07-11T08:25:31;0.70;;;0.70;;
59673;SDS011;45544;53.358;-1.488;2022-07-11T08:27:57;0.40;;;0.40;;
59673;SDS011;45544;53.358;-1.488;2022-07-11T08:30:23;0.82;;;0.77;;
59673;SDS011;45544;53.358;-1.488;2022-07-11T08:32:50;0.70;;;0.70;;
59673;SDS011;45544;53.358;-1.488;2022-07-11T08:35:16;1.08;;;0.60;;
59673;SDS011;45544;53.358;-1.488;2022-07-11T08:37:42;0.82;;;0.60;;
59673;SDS011;45544;53.358;-1.488;2022-07-11T08:40:09;0.73;;;0.70;;
59673;SDS011;45544;53.358;-1.488;2022-07-11T08:42:42;1.23;;;1.10;;
59673;SDS011;45544;53.358;-1.488;2022-07-11T08:45:12;0.70;;;0.70;;
59673;SDS011;45544;53.358;-1.488;2022-07-11T08:47:38;0.68;;;0.68;;
59673;SDS011;45544;53.358;-1.488;2022-07-11T08:50:05;1.05;;;0.80;;
59673;SDS011;45544;53.358;-1.488;2022-07-11T08:52:32;1.08;;;0.98;;
59673;SDS011;45544;53.358;-1.488;2022-07-11T08:54:58;2.85;;;0.80;;
59673;SDS011;45544;53.358;-1.488;2022-07-11T08:57:24;1.35;;;0.70;;
59673;SDS011;45544;53.358;-1.488;2022-07-11T08:59:53;1.40;;;0.73;;
59673;SDS011;45544;53.358;-1.488;2022-07-11T09:02:23;1.40;;;1.20;;
59673;SDS011;45544;53.358;-1.488;2022-07-11T09:04:49;0.82;;;0.70;;
59673;SDS011;45544;53.358;-1.488;2022-07-11T09:07:15;1.02;;;0.93;;
59673;SDS011;45544;53.358;-1.488;2022-07-11T09:09:41;2.42;;;0.95;;
59673;SDS011;45544;53.358;-1.488;2022-07-11T09:12:10;0.80;;;0.80;;
59673;SDS011;45544;53.358;-1.488;2022-07-11T09:14:37;2.08;;;1.63;;
59673;SDS011;45544;53.358;-1.488;2022-07-11T09:17:04;1.10;;;0.63;;
59673;SDS011;45544;53.358;-1.488;2022-07-11T09:19:31;3.85;;;1.02;;
59673;SDS011;45544;53.358;-1.488;2022-07-11T09:22:05;3.50;;;1.58;;
59673;SDS011;45544;53.358;-1.488;2022-07-11T09:25:00;1.50;;;1.15;;
59673;SDS011;45544;53.358;-1.488;2022-07-11T09:30:15;1.40;;;0.90;;
59673;SDS011;45544;53.358;-1.488;2022-07-11T09:33:04;1.55;;;0.80;;
59673;SDS011;45544;53.358;-1.488;2022-07-11T09:37:58;3.33;;;1.13;;
59673;SDS011;45544;53.358;-1.488;2022-07-11T09:40:24;2.50;;;1.02;;
59673;SDS011;45544;53.358;-1.488;2022-07-11T09:42:54;1.80;;;1.05;;
59673;SDS011;45544;53.358;-1.488;2022-07-11T09:45:30;2.33;;;1.25;;
59673;SDS011;45544;53.358;-1.488;2022-07-11T09:47:57;3.78;;;1.00;;
59673;SDS011;45544;53.358;-1.488;2022-07-11T09:50:24;1.92;;;0.90;;
59673;SDS011;45544;53.358;-1.488;2022-07-11T09:55:26;0.80;;;0.80;;
59673;SDS011;45544;53.358;-1.488;2022-07-11T09:57:52;1.40;;;1.25;;
59673;SDS011;45544;53.358;-1.488;2022-07-11T10:00:18;0.73;;;0.70;;
59673;SDS011;45544;53.358;-1.488;2022-07-11T10:02:45;2.42;;;1.50;;
59673;SDS011;45544;53.358;-1.488;2022-07-11T10:05:11;1.17;;;1.08;;
59673;SDS011;45544;53.358;-1.488;2022-07-11T10:07:37;1.23;;;1.13;;
59673;SDS011;45544;53.358;-1.488;2022-07-11T10:10:04;1.40;;;1.23;;
59673;SDS011;45544;53.358;-1.488;2022-07-11T10:12:31;1.10;;;0.98;;
59673;SDS011;45544;53.358;-1.488;2022-07-11T10:15:02;1.00;;;0.93;;
59673;SDS011;45544;53.358;-1.488;2022-07-11T10:20:22;1.30;;;1.20;;
59673;SDS011;45544;53.358;-1.488;2022-07-11T10:22:53;1.13;;;1.02;;
59673;SDS011;45544;53.358;-1.488;2022-07-11T10:27:59;1.00;;;0.90;;
59673;SDS011;45544;53.358;-1.488;2022-07-11T10:33:15;1.08;;;0.80;;
59673;SDS011;45544;53.358;-1.488;2022-07-11T10:35:42;1.13;;;1.02;;
59673;SDS011;45544;53.358;-1.488;2022-07-11T10:38:10;2.60;;;0.80;;
59673;SDS011;45544;53.358;-1.488;2022-07-11T10:43:15;1.20;;;1.10;;
59673;SDS011;45544;53.358;-1.488;2022-07-11T10:48:27;2.22;;;1.63;;
59673;SDS011;45544;53.358;-1.488;2022-07-11T10:53:47;1.23;;;1.13;;
59673;SDS011;45544;53.358;-1.488;2022-07-11T10:59:16;1.10;;;1.00;;
59673;SDS011;45544;53.358;-1.488;2022-07-11T11:02:03;2.97;;;1.00;;
59673;SDS011;45544;53.358;-1.488;2022-07-11T11:04:48;1.10;;;0.90;;
59673;SDS011;45544;53.358;-1.488;2022-07-11T11:09:56;1.88;;;1.10;;
59673;SDS011;45544;53.358;-1.488;2022-07-11T11:23:31;1.05;;;1.05;;
59673;SDS011;45544;53.358;-1.488;2022-07-11T11:26:10;1.00;;;1.00;;
59673;SDS011;45544;53.358;-1.488;2022-07-11T11:28:37;1.15;;;1.10;;
59673;SDS011;45544;53.358;-1.488;2022-07-11T11:31:07;1.52;;;1.13;;
59673;SDS011;45544;53.358;-1.488;2022-07-11T11:33:34;1.73;;;1.10;;
59673;SDS011;45544;53.358;-1.488;2022-07-11T11:36:03;1.15;;;1.08;;
59673;SDS011;45544;53.358;-1.488;2022-07-11T11:38:29;0.75;;;0.75;;
59673;SDS011;45544;53.358;-1.488;2022-07-11T11:40:58;1.27;;;1.10;;
59673;SDS011;45544;53.358;-1.488;2022-07-11T11:43:24;1.05;;;1.05;;
59673;SDS011;45544;53.358;-1.488;2022-07-11T11:45:51;0.80;;;0.80;;
59673;SDS011;45544;53.358;-1.488;2022-07-11T11:48:33;1.40;;;1.17;;
59673;SDS011;45544;53.358;-1.488;2022-07-11T11:51:01;1.48;;;1.00;;
59673;SDS011;45544;53.358;-1.488;2022-07-11T11:53:37;0.85;;;0.80;;
59673;SDS011;45544;53.358;-1.488;2022-07-11T11:56:11;1.60;;;1.27;;
59673;SDS011;45544;53.358;-1.488;2022-07-11T11:58:38;2.17;;;1.98;;
59673;SDS011;45544;53.358;-1.488;2022-07-11T12:01:04;1.15;;;0.95;;
59673;SDS011;45544;53.358;-1.488;2022-07-11T12:06:15;1.60;;;1.20;;
59673;SDS011;45544;53.358;-1.488;2022-07-11T12:08:41;1.10;;;1.08;;
59673;SDS011;45544;53.358;-1.488;2022-07-11T12:11:14;1.10;;;1.00;;
59673;SDS011;45544;53.358;-1.488;2022-07-11T12:13:40;2.37;;;1.27;;
59673;SDS011;45544;53.358;-1.488;2022-07-11T12:18:59;1.40;;;1.02;;
59673;SDS011;45544;53.358;-1.488;2022-07-11T12:21:27;1.30;;;1.13;;
59673;SDS011;45544;53.358;-1.488;2022-07-11T12:23:53;1.13;;;1.10;;
59673;SDS011;45544;53.358;-1.488;2022-07-11T12:26:20;0.98;;;0.98;;
59673;SDS011;45544;53.358;-1.488;2022-07-11T12:34:08;1.25;;;1.20;;
59673;SDS011;45544;53.358;-1.488;2022-07-11T12:36:34;1.40;;;1.23;;
59673;SDS011;45544;53.358;-1.488;2022-07-11T12:39:00;1.30;;;1.20;;
59673;SDS011;45544;53.358;-1.488;2022-07-11T12:41:28;0.90;;;0.90;;
59673;SDS011;45544;53.358;-1.488;2022-07-11T12:43:55;0.95;;;0.95;;
59673;SDS011;45544;53.358;-1.488;2022-07-11T12:46:40;1.20;;;1.20;;
59673;SDS011;45544;53.358;-1.488;2022-07-11T12:49:07;0.93;;;0.93;;
59673;SDS011;45544;53.358;-1.488;2022-07-11T12:51:34;1.67;;;1.58;;
59673;SDS011;45544;53.358;-1.488;2022-07-11T12:54:01;1.13;;;1.02;;
59673;SDS011;45544;53.358;-1.488;2022-07-11T12:56:28;1.30;;;1.20;;
59673;SDS011;45544;53.358;-1.488;2022-07-11T12:58:54;1.15;;;1.05;;
59673;SDS011;45544;53.358;-1.488;2022-07-11T13:01:20;1.58;;;1.10;;
59673;SDS011;45544;53.358;-1.488;2022-07-11T13:03:46;1.95;;;1.23;;
59673;SDS011;45544;53.358;-1.488;2022-07-11T13:06:12;1.17;;;1.08;;
59673;SDS011;45544;53.358;-1.488;2022-07-11T13:08:40;1.42;;;1.30;;
59673;SDS011;45544;53.358;-1.488;2022-07-11T13:11:11;2.40;;;1.25;;
59673;SDS011;45544;53.358;-1.488;2022-07-11T13:13:37;1.20;;;1.13;;
59673;SDS011;45544;53.358;-1.488;2022-07-11T13:16:04;1.52;;;1.10;;
59673;SDS011;45544;53.358;-1.488;2022-07-11T13:18:32;1.48;;;1.15;;
59673;SDS011;45544;53.358;-1.488;2022-07-11T13:21:03;1.50;;;1.40;;
59673;SDS011;45544;53.358;-1.488;2022-07-11T13:23:29;1.65;;;1.55;;
59673;SDS011;45544;53.358;-1.488;2022-07-11T13:25:56;2.78;;;1.08;;
59673;SDS011;45544;53.358;-1.488;2022-07-11T13:28:22;1.33;;;1.23;;
59673;SDS011;45544;53.358;-1.488;2022-07-11T13:30:49;1.20;;;1.10;;
59673;SDS011;45544;53.358;-1.488;2022-07-11T13:33:15;1.75;;;1.15;;
59673;SDS011;45544;53.358;-1.488;2022-07-11T13:35:41;1.10;;;1.10;;
59673;SDS011;45544;53.358;-1.488;2022-07-11T13:38:08;1.55;;;1.08;;
59673;SDS011;45544;53.358;-1.488;2022-07-11T13:40:34;1.50;;;1.40;;
59673;SDS011;45544;53.358;-1.488;2022-07-11T13:43:00;1.25;;;1.15;;
59673;SDS011;45544;53.358;-1.488;2022-07-11T13:45:27;1.30;;;1.20;;
59673;SDS011;45544;53.358;-1.488;2022-07-11T13:47:53;1.20;;;1.20;;
59673;SDS011;45544;53.358;-1.488;2022-07-11T13:50:19;1.50;;;1.40;;
59673;SDS011;45544;53.358;-1.488;2022-07-11T13:52:46;1.45;;;1.35;;
59673;SDS011;45544;53.358;-1.488;2022-07-11T13:55:22;1.30;;;1.20;;
59673;SDS011;45544;53.358;-1.488;2022-07-11T13:57:50;2.05;;;1.35;;
59673;SDS011;45544;53.358;-1.488;2022-07-11T14:00:18;1.55;;;1.13;;
59673;SDS011;45544;53.358;-1.488;2022-07-11T14:02:45;2.75;;;1.35;;
59673;SDS011;45544;53.358;-1.488;2022-07-11T14:05:12;2.10;;;1.60;;
59673;SDS011;45544;53.358;-1.488;2022-07-11T14:07:39;1.42;;;1.33;;
59673;SDS011;45544;53.358;-1.488;2022-07-11T14:10:06;1.70;;;1.60;;
59673;SDS011;45544;53.358;-1.488;2022-07-11T14:12:32;3.10;;;1.70;;
59673;SDS011;45544;53.358;-1.488;2022-07-11T14:14:59;1.65;;;1.42;;
59673;SDS011;45544;53.358;-1.488;2022-07-11T14:17:25;2.10;;;1.65;;
59673;SDS011;45544;53.358;-1.488;2022-07-11T14:19:51;1.60;;;1.50;;
59673;SDS011;45544;53.358;-1.488;2022-07-11T14:22:18;1.67;;;1.58;;
59673;SDS011;45544;53.358;-1.488;2022-07-11T14:24:44;4.10;;;2.22;;
59673;SDS011;45544;53.358;-1.488;2022-07-11T14:27:10;1.48;;;1.38;;
59673;SDS011;45544;53.358;-1.488;2022-07-11T14:29:36;1.60;;;1.50;;
59673;SDS011;45544;53.358;-1.488;2022-07-11T14:32:02;2.50;;;1.65;;
59673;SDS011;45544;53.358;-1.488;2022-07-11T14:34:29;2.05;;;1.80;;
59673;SDS011;45544;53.358;-1.488;2022-07-11T14:36:56;1.73;;;1.63;;
59673;SDS011;45544;53.358;-1.488;2022-07-11T14:39:22;2.45;;;1.83;;
59673;SDS011;45544;53.358;-1.488;2022-07-11T14:41:48;3.88;;;2.00;;
59673;SDS011;45544;53.358;-1.488;2022-07-11T14:44:15;2.30;;;2.10;;
59673;SDS011;45544;53.358;-1.488;2022-07-11T14:46:41;2.97;;;1.90;;
59673;SDS011;45544;53.358;-1.488;2022-07-11T14:49:07;2.05;;;1.95;;
59673;SDS011;45544;53.358;-1.488;2022-07-11T14:51:34;2.90;;;1.88;;
59673;SDS011;45544;53.358;-1.488;2022-07-11T14:54:00;3.15;;;2.17;;
59673;SDS011;45544;53.358;-1.488;2022-07-11T14:56:26;2.47;;;2.13;;
59673;SDS011;45544;53.358;-1.488;2022-07-11T14:58:52;4.07;;;2.20;;
59673;SDS011;45544;53.358;-1.488;2022-07-11T15:01:18;3.72;;;2.58;;
59673;SDS011;45544;53.358;-1.488;2022-07-11T15:03:45;1.85;;;1.75;;
59673;SDS011;45544;53.358;-1.488;2022-07-11T15:06:12;2.53;;;2.33;;
59673;SDS011;45544;53.358;-1.488;2022-07-11T15:08:38;2.25;;;2.05;;
59673;SDS011;45544;53.358;-1.488;2022-07-11T15:11:23;2.67;;;2.28;;
59673;SDS011;45544;53.358;-1.488;2022-07-11T15:14:08;3.70;;;2.33;;
59673;SDS011;45544;53.358;-1.488;2022-07-11T15:16:35;2.35;;;2.15;;
59673;SDS011;45544;53.358;-1.488;2022-07-11T15:19:02;2.97;;;2.33;;
59673;SDS011;45544;53.358;-1.488;2022-07-11T15:21:28;2.55;;;2.35;;
59673;SDS011;45544;53.358;-1.488;2022-07-11T15:23:54;5.72;;;2.38;;
59673;SDS011;45544;53.358;-1.488;2022-07-11T15:26:21;2.80;;;2.60;;